createdAt,value
2017-10-19T00:02:40.990Z,99832.35
2017-10-19T00:05:42.439Z,99837.17
2017-10-19T00:08:43.896Z,99833.67
2017-10-19T00:11:46.144Z,99833.91
2017-10-19T00:14:47.553Z,99836.13
2017-10-19T00:17:49.041Z,99829.52
2017-10-19T00:20:50.470Z,99826.81
2017-10-19T00:23:51.909Z,99830.38
2017-10-19T00:26:53.376Z,99839.87
2017-10-19T00:29:54.799Z,99846.94
2017-10-19T00:32:57.006Z,99853.69
2017-10-19T00:35:58.411Z,99852.75
2017-10-19T00:39:00.620Z,99854.47
2017-10-19T00:42:02.001Z,99858.16
2017-10-19T00:45:03.516Z,99853.69
2017-10-19T00:48:04.954Z,99840.17
2017-10-19T00:51:06.398Z,99835.36
2017-10-19T00:54:07.817Z,99836.30
2017-10-19T00:57:09.306Z,99831.52
2017-10-19T01:00:10.758Z,99838.22
2017-10-19T01:03:12.909Z,99829.84
2017-10-19T01:06:15.072Z,99824.14
2017-10-19T01:09:16.473Z,99820.41
2017-10-19T01:12:17.901Z,99818.78
2017-10-19T01:15:19.262Z,99827.01
2017-10-19T01:18:20.666Z,99823.70
2017-10-19T01:21:22.611Z,99816.58
2017-10-19T01:24:24.053Z,99811.92
2017-10-19T01:27:25.494Z,99825.16
2017-10-19T01:30:26.928Z,99831.60
2017-10-19T01:33:28.396Z,99823.50
2017-10-19T01:36:29.793Z,99827.33
2017-10-19T01:39:31.180Z,99818.06
2017-10-19T01:42:32.585Z,99817.36
2017-10-19T01:45:34.006Z,99816.45
2017-10-19T01:48:35.494Z,99810.89
2017-10-19T01:51:37.653Z,99812.86
2017-10-19T01:54:39.059Z,99819.46
2017-10-19T01:57:40.435Z,99809.02
2017-10-19T02:00:42.997Z,99807.05
2017-10-19T02:03:44.380Z,99811.78
2017-10-19T02:06:45.825Z,99804.84
2017-10-19T02:09:47.279Z,99808.91
2017-10-19T02:12:48.652Z,99808.25
2017-10-19T02:15:50.089Z,99809.02
2017-10-19T02:18:51.546Z,99815.02
2017-10-19T02:21:52.985Z,99804.37
2017-10-19T02:24:54.360Z,99814.36
2017-10-19T02:27:55.780Z,99814.20
2017-10-19T02:30:57.144Z,99806.97
2017-10-19T02:33:58.518Z,99806.91
2017-10-19T02:36:59.932Z,99804.63
2017-10-19T02:40:01.298Z,99803.87
2017-10-19T02:43:02.696Z,99807.24
2017-10-19T02:46:10.097Z,99809.77
2017-10-19T02:49:12.237Z,99805.05
2017-10-19T02:52:13.627Z,99806.45
2017-10-19T02:55:15.108Z,99808.98
2017-10-19T02:58:16.576Z,99815.99
2017-10-19T03:01:17.960Z,99804.78
2017-10-19T03:04:19.345Z,99796.41
2017-10-19T03:07:20.709Z,99797.09
2017-10-19T03:10:22.121Z,99796.47
2017-10-19T03:13:24.247Z,99797.87
2017-10-19T03:16:25.697Z,99803.84
2017-10-19T03:19:27.120Z,99799.06
2017-10-19T03:22:28.504Z,99792.58
2017-10-19T03:25:29.956Z,99792.31
2017-10-19T03:28:31.309Z,99790.53
2017-10-19T03:31:32.720Z,99780.98
2017-10-19T03:34:34.096Z,99782.60
2017-10-19T03:37:35.541Z,99783.33
2017-10-19T03:40:36.918Z,99780.87
2017-10-19T03:43:38.310Z,99781.66
2017-10-19T03:46:40.497Z,99788.03
2017-10-19T03:49:41.953Z,99777.81
2017-10-19T03:52:43.371Z,99775.72
2017-10-19T03:55:45.488Z,99777.23
2017-10-19T03:58:46.912Z,99777.56
2017-10-19T04:01:48.281Z,99780.58
2017-10-19T04:04:49.729Z,99770.80
2017-10-19T04:07:51.163Z,99766.72
2017-10-19T04:10:52.556Z,99768.77
2017-10-19T04:13:53.970Z,99767.45
2017-10-19T04:16:56.063Z,99773.61
2017-10-19T04:19:57.446Z,99764.63
2017-10-19T04:22:58.813Z,99771.41
2017-10-19T04:26:00.913Z,99766.41
2017-10-19T04:29:02.269Z,99769.33
2017-10-19T04:32:03.684Z,99763.87
2017-10-19T04:35:05.069Z,99769.27
2017-10-19T04:38:06.437Z,99767.94
2017-10-19T04:41:08.557Z,99772.17
2017-10-19T04:44:10.641Z,99766.63
2017-10-19T04:47:12.024Z,99765.98
2017-10-19T04:50:14.142Z,99769.44
2017-10-19T04:53:16.292Z,99762.77
2017-10-19T04:56:17.709Z,99751.05
2017-10-19T04:59:19.830Z,99762.33
2017-10-19T05:02:21.232Z,99757.63
2017-10-19T05:05:22.800Z,99764.80
2017-10-19T05:08:24.261Z,99764.36
2017-10-19T05:11:25.634Z,99768.63
2017-10-19T05:14:27.122Z,99763.18
2017-10-19T05:17:28.502Z,99763.56
2017-10-19T05:20:29.905Z,99752.61
2017-10-19T05:23:32.101Z,99751.84
2017-10-19T05:26:33.485Z,99742.77
2017-10-19T05:29:34.920Z,99746.78
2017-10-19T05:32:36.262Z,99745.55
2017-10-19T05:35:37.664Z,99742.04
2017-10-19T05:38:39.013Z,99744.97
2017-10-19T05:41:40.394Z,99751.30
2017-10-19T05:44:48.824Z,99743.34
2017-10-19T05:47:50.206Z,99743.30
2017-10-19T05:50:51.642Z,99743.75
2017-10-19T05:53:53.013Z,99748.23
2017-10-19T05:56:54.486Z,99752.83
2017-10-19T05:59:55.802Z,99753.88
2017-10-19T06:02:57.233Z,99753.29
2017-10-19T06:05:58.605Z,99747.27
2017-10-19T06:08:59.961Z,99752.38
2017-10-19T06:12:01.308Z,99753.56
2017-10-19T06:15:02.757Z,99758.59
2017-10-19T06:18:04.117Z,99767.78
2017-10-19T06:21:05.533Z,99767.53
2017-10-19T06:24:06.956Z,99753.17
2017-10-19T06:27:09.100Z,99756.03
2017-10-19T06:30:10.470Z,99752.52
2017-10-19T06:33:12.606Z,99750.89
2017-10-19T06:36:14.012Z,99757.60
2017-10-19T06:39:16.219Z,99763.98
2017-10-19T06:42:17.620Z,99778.63
2017-10-19T06:45:19.740Z,99773.96
2017-10-19T06:48:21.070Z,99779.23
2017-10-19T06:51:22.598Z,99787.39
2017-10-19T06:54:24.748Z,99781.48
2017-10-19T06:57:26.087Z,99778.34
2017-10-19T07:00:27.528Z,99771.55
2017-10-19T07:03:29.696Z,99777.36
2017-10-19T07:06:31.036Z,99780.05
2017-10-19T07:09:32.389Z,99770.42
2017-10-19T07:12:34.513Z,99782.56
2017-10-19T07:15:36.685Z,99780.67
2017-10-19T07:18:38.736Z,99786.91
2017-10-19T07:21:40.768Z,99776.61
2017-10-19T07:24:42.116Z,99773.08
2017-10-19T07:27:43.553Z,99777.84
2017-10-19T07:30:44.916Z,99765.50
2017-10-19T07:33:46.320Z,99771.33
2017-10-19T07:36:48.399Z,99767.69
2017-10-19T07:39:49.789Z,99774.72
2017-10-19T07:42:51.080Z,99779.53
2017-10-19T07:45:53.218Z,99780.89
2017-10-19T07:48:54.569Z,99772.92
2017-10-19T07:51:56.071Z,99774.16
2017-10-19T07:54:57.420Z,99783.30
2017-10-19T07:57:58.723Z,99771.56
2017-10-19T08:01:00.124Z,99775.45
2017-10-19T08:04:01.654Z,99776.53
2017-10-19T08:07:03.828Z,99774.11
2017-10-19T08:10:05.994Z,99775.77
2017-10-19T08:13:08.184Z,99773.33
2017-10-19T08:16:09.662Z,99780.50
2017-10-19T08:19:11.111Z,99781.07
2017-10-19T08:22:12.591Z,99777.00
2017-10-19T08:25:14.073Z,99772.59
2017-10-19T08:28:16.288Z,99781.39
2017-10-19T08:31:17.671Z,99784.24
2017-10-19T08:34:19.137Z,99777.82
2017-10-19T08:37:20.498Z,99780.53
2017-10-19T08:40:22.705Z,99783.17
2017-10-19T08:43:24.065Z,99786.28
2017-10-19T08:46:25.599Z,99788.30
2017-10-19T08:49:27.057Z,99793.09
2017-10-19T08:52:28.511Z,99794.55
2017-10-19T08:55:30.005Z,99791.15
2017-10-19T08:58:31.424Z,99794.48
2017-10-19T09:01:32.806Z,99804.94
2017-10-19T09:04:34.231Z,99806.80
2017-10-19T09:07:35.637Z,99802.54
2017-10-19T09:10:37.779Z,99798.38
2017-10-19T09:13:39.207Z,99798.64
2017-10-19T09:16:41.424Z,99799.45
2017-10-19T09:19:43.539Z,99798.64
2017-10-19T09:22:44.999Z,99792.26
2017-10-19T09:25:46.460Z,99793.92
2017-10-19T09:28:47.883Z,99796.23
2017-10-19T09:31:49.238Z,99798.35
2017-10-19T09:34:50.630Z,99790.86
2017-10-19T09:37:52.063Z,99791.49
2017-10-19T09:40:53.453Z,99784.30
2017-10-19T09:43:55.620Z,99796.08
2017-10-19T09:46:57.772Z,99793.23
2017-10-19T09:49:59.241Z,99785.20
2017-10-19T09:53:00.644Z,99781.38
2017-10-19T09:56:02.124Z,99777.94
2017-10-19T09:59:03.637Z,99773.84
2017-10-19T10:02:05.108Z,99763.75
2017-10-19T10:05:06.493Z,99767.83
2017-10-19T10:08:07.989Z,99769.43
2017-10-19T10:11:09.417Z,99757.06
2017-10-19T10:14:11.697Z,99761.74
2017-10-19T10:17:13.922Z,99750.73
2017-10-19T10:20:15.367Z,99760.09
2017-10-19T10:23:16.828Z,99753.32
2017-10-19T10:26:18.252Z,99754.76
2017-10-19T10:29:19.686Z,99752.56
2017-10-19T10:32:21.083Z,99745.88
2017-10-19T10:35:23.233Z,99757.78
2017-10-19T10:38:24.706Z,99747.69
2017-10-19T10:41:26.200Z,99740.00
2017-10-19T10:44:28.404Z,99736.90
2017-10-19T10:47:29.915Z,99727.56
2017-10-19T10:50:32.235Z,99718.19
2017-10-19T10:53:33.647Z,99726.21
2017-10-19T10:56:35.870Z,99737.62
2017-10-19T10:59:37.299Z,99714.62
2017-10-19T11:02:38.775Z,99709.86
2017-10-19T11:05:40.200Z,99708.62
2017-10-19T11:08:41.653Z,99705.88
2017-10-19T11:11:43.119Z,99717.72
2017-10-19T11:14:44.559Z,99703.69
2017-10-19T11:17:45.976Z,99702.45
2017-10-19T11:20:48.142Z,99697.67
2017-10-19T11:23:49.580Z,99694.41
2017-10-19T11:26:51.030Z,99691.38
2017-10-19T11:29:52.535Z,99691.23
2017-10-19T11:32:53.972Z,99681.77
2017-10-19T11:35:55.372Z,99678.83
2017-10-19T11:38:56.804Z,99671.02
2017-10-19T11:41:58.243Z,99673.81
2017-10-19T11:44:59.722Z,99670.66
2017-10-19T11:48:01.145Z,99666.35
2017-10-19T11:51:02.619Z,99659.00
2017-10-19T11:54:04.016Z,99651.52
2017-10-19T11:57:05.433Z,99654.42
2017-10-19T12:00:06.896Z,99662.56
2017-10-19T12:03:08.514Z,99645.02
2017-10-19T12:06:09.927Z,99641.91
2017-10-19T12:09:12.112Z,99640.80
2017-10-19T12:12:13.589Z,99643.09
2017-10-19T12:15:15.231Z,99639.69
2017-10-19T12:18:16.750Z,99647.91
2017-10-19T12:21:19.300Z,99639.22
2017-10-19T12:24:20.855Z,99638.07
2017-10-19T12:27:22.305Z,99632.84
2017-10-19T12:30:23.700Z,99620.55
2017-10-19T12:33:25.309Z,99620.87
2017-10-19T12:36:26.782Z,99619.09
2017-10-19T12:39:28.451Z,99618.13
2017-10-19T12:42:30.735Z,99620.09
2017-10-19T12:45:32.263Z,99610.62
2017-10-19T12:48:33.759Z,99617.78
2017-10-19T12:51:35.959Z,99604.79
2017-10-19T12:54:37.543Z,99601.51
2017-10-19T12:57:39.036Z,99591.55
2017-10-19T13:00:41.271Z,99590.68
2017-10-19T13:03:42.863Z,99590.16
2017-10-19T13:06:45.418Z,99584.16
2017-10-19T13:09:48.191Z,99568.75
2017-10-19T13:12:50.095Z,99562.70
2017-10-19T13:15:51.901Z,99561.09
2017-10-19T13:18:53.389Z,99570.53
2017-10-19T13:21:55.845Z,99576.16
2017-10-19T13:24:58.945Z,99586.80
2017-10-19T13:28:00.646Z,99584.69
2017-10-19T13:31:02.215Z,99575.41
2017-10-19T13:34:03.647Z,99563.95
2017-10-19T13:37:05.342Z,99566.01
2017-10-19T13:40:06.804Z,99562.59
2017-10-19T13:43:08.523Z,99556.89
2017-10-19T13:46:10.207Z,99555.94
2017-10-19T13:49:11.712Z,99550.16
2017-10-19T13:52:13.493Z,99550.23
2017-10-19T13:55:15.307Z,99551.97
2017-10-19T13:58:16.770Z,99553.22
2017-10-19T14:01:18.588Z,99542.45
2017-10-19T14:04:20.411Z,99535.30
2017-10-19T14:07:22.837Z,99533.48
2017-10-19T14:10:24.535Z,99535.94
2017-10-19T14:13:26.771Z,99520.84
2017-10-19T14:16:28.260Z,99526.84
2017-10-19T14:19:30.473Z,99519.50
2017-10-19T14:22:31.991Z,99518.70
2017-10-19T14:25:34.215Z,99525.58
2017-10-19T14:28:35.659Z,99518.15
2017-10-19T14:31:37.165Z,99519.49
2017-10-19T14:34:39.401Z,99518.58
2017-10-19T14:37:40.970Z,99521.27
2017-10-19T14:40:43.817Z,99522.38
2017-10-19T14:43:45.686Z,99521.07
2017-10-19T14:46:47.643Z,99530.74
2017-10-19T14:49:50.221Z,99525.93
2017-10-19T14:52:52.200Z,99536.48
2017-10-19T14:55:59.522Z,99538.59
2017-10-19T14:59:01.808Z,99531.34
2017-10-19T15:02:07.271Z,99537.63
2017-10-19T15:05:26.178Z,99538.66
2017-10-19T15:08:27.684Z,99532.00
2017-10-19T15:11:30.336Z,99532.55
2017-10-19T15:14:34.515Z,99535.42
2017-10-19T15:17:39.372Z,99527.09
2017-10-19T15:20:41.065Z,99530.30
2017-10-19T15:23:42.608Z,99524.55
2017-10-19T15:26:44.903Z,99516.83
2017-10-19T15:29:46.483Z,99523.30
2017-10-19T15:32:48.880Z,99521.61
2017-10-19T15:35:50.425Z,99524.10
2017-10-19T15:38:52.007Z,99512.72
2017-10-19T15:41:53.592Z,99517.70
2017-10-19T15:44:56.172Z,99519.48
2017-10-19T15:47:58.466Z,99511.64
2017-10-19T15:51:16.444Z,99525.16
2017-10-19T15:54:18.144Z,99523.31
2017-10-19T15:57:19.695Z,99530.60
2017-10-19T16:00:22.113Z,99520.30
2017-10-19T16:03:23.666Z,99522.25
2017-10-19T16:06:25.218Z,99510.44
2017-10-19T16:09:26.758Z,99521.94
2017-10-19T16:12:28.416Z,99514.82
2017-10-19T16:15:31.734Z,99512.40
2017-10-19T16:18:35.645Z,99519.52
2017-10-19T16:21:37.520Z,99509.70
2017-10-19T16:24:40.242Z,99518.50
2017-10-19T16:27:43.211Z,99520.95
2017-10-19T16:30:44.819Z,99532.04
2017-10-19T16:33:46.409Z,99515.00
2017-10-19T16:36:49.170Z,99528.21
2017-10-19T16:39:51.712Z,99523.92
2017-10-19T16:42:57.427Z,99532.32
2017-10-19T16:45:58.896Z,99536.17
2017-10-19T16:49:00.629Z,99529.88
2017-10-19T16:52:02.335Z,99537.74
2017-10-19T16:55:04.738Z,99536.38
2017-10-19T16:58:08.466Z,99542.36
2017-10-19T17:01:11.320Z,99549.55
2017-10-19T17:04:13.610Z,99543.25
2017-10-19T17:07:15.316Z,99554.45
2017-10-19T17:10:17.919Z,99553.36
2017-10-19T17:13:21.213Z,99554.97
2017-10-19T17:16:24.299Z,99565.98
2017-10-19T17:19:27.667Z,99555.09
2017-10-19T17:22:30.736Z,99557.55
2017-10-19T17:25:33.680Z,99559.23
2017-10-19T17:28:36.727Z,99561.22
2017-10-19T17:31:39.004Z,99563.89
2017-10-19T17:34:41.252Z,99552.83
2017-10-19T17:37:44.467Z,99554.70
2017-10-19T17:40:48.079Z,99555.59
2017-10-19T17:43:51.032Z,99557.70
2017-10-19T17:46:54.816Z,99567.17
2017-10-19T17:49:57.802Z,99564.48
2017-10-19T17:53:00.700Z,99564.48
2017-10-19T17:56:03.952Z,99566.50
2017-10-19T17:59:05.640Z,99570.91
2017-10-19T18:02:10.558Z,99566.42
2017-10-19T18:05:13.919Z,99576.73
2017-10-19T18:08:18.585Z,99566.48
2017-10-19T18:11:20.615Z,99573.17
2017-10-19T18:14:22.828Z,99563.99
2017-10-19T18:17:25.261Z,99562.89
2017-10-19T18:20:26.835Z,99562.36
2017-10-19T18:23:28.375Z,99568.09
2017-10-19T18:26:29.861Z,99565.13
2017-10-19T18:29:31.448Z,99567.20
2017-10-19T18:32:32.863Z,99568.89
2017-10-19T18:35:34.404Z,99557.13
2017-10-19T18:38:35.976Z,99552.08
2017-10-19T18:41:37.640Z,99568.24
2017-10-19T18:44:39.231Z,99565.34
2017-10-19T18:47:40.696Z,99578.78
2017-10-19T18:50:42.177Z,99566.16
2017-10-19T18:53:43.654Z,99562.28
2017-10-19T18:56:45.116Z,99566.64
2017-10-19T18:59:46.556Z,99570.68
2017-10-19T19:02:48.831Z,99570.53
2017-10-19T19:05:50.229Z,99571.69
2017-10-19T19:08:52.240Z,99570.20
2017-10-19T19:11:54.419Z,99564.20
2017-10-19T19:14:57.146Z,99559.44
2017-10-19T19:17:59.084Z,99562.51
2017-10-19T19:21:01.219Z,99561.75
2017-10-19T19:24:03.222Z,99557.41
2017-10-19T19:27:05.176Z,99563.14
2017-10-19T19:30:07.164Z,99556.43
2017-10-19T19:33:10.293Z,99553.69
2017-10-19T19:36:13.089Z,99541.44
2017-10-19T19:39:15.173Z,99551.27
2017-10-19T19:42:17.174Z,99549.13
2017-10-19T19:45:18.923Z,99545.67
2017-10-19T19:48:20.367Z,99545.58
2017-10-19T19:51:22.631Z,99537.84
2017-10-19T19:54:24.805Z,99541.87
2017-10-19T19:57:27.391Z,99542.06
2017-10-19T20:00:29.378Z,99547.50
2017-10-19T20:03:30.910Z,99554.92
2017-10-19T20:06:32.504Z,99549.41
2017-10-19T20:17:22.081Z,99549.31
2017-10-19T20:20:24.236Z,99550.91
2017-10-19T20:23:26.381Z,99551.25
2017-10-19T20:26:27.855Z,99557.08
2017-10-19T20:29:29.330Z,99546.00
2017-10-19T20:32:30.752Z,99547.20
2017-10-19T20:35:32.196Z,99540.81
2017-10-19T20:38:33.553Z,99548.85
2017-10-19T20:41:34.989Z,99552.09
2017-10-19T20:44:36.384Z,99547.91
2017-10-19T20:47:38.557Z,99550.05
2017-10-19T20:50:40.897Z,99547.58
2017-10-19T20:53:42.314Z,99547.78
2017-10-19T20:56:43.770Z,99544.93
2017-10-19T20:59:45.152Z,99546.86
2017-10-19T21:02:46.528Z,99545.46
2017-10-19T21:05:49.670Z,99543.91
2017-10-19T21:08:51.129Z,99535.72
2017-10-19T21:11:52.509Z,99536.56
2017-10-19T21:14:53.886Z,99546.36
2017-10-19T21:17:55.989Z,99531.16
2017-10-19T21:20:57.395Z,99535.29
2017-10-19T21:23:59.572Z,99535.02
2017-10-19T21:27:01.694Z,99527.42
2017-10-19T21:30:03.141Z,99529.23
2017-10-19T21:33:05.294Z,99522.88
2017-10-19T21:36:06.678Z,99536.27
2017-10-19T21:39:08.061Z,99529.40
2017-10-19T21:42:10.206Z,99517.31
2017-10-19T21:45:11.615Z,99521.17
2017-10-19T21:48:13.099Z,99519.77
2017-10-19T21:51:15.287Z,99516.96
2017-10-19T21:54:16.684Z,99511.41
2017-10-19T21:57:18.091Z,99519.91
2017-10-19T22:00:19.465Z,99511.77
2017-10-19T22:03:20.987Z,99510.31
2017-10-19T22:06:23.876Z,99505.33
2017-10-19T22:09:25.274Z,99506.70
2017-10-19T22:12:26.649Z,99508.24
2017-10-19T22:15:28.051Z,99507.36
2017-10-19T22:18:30.280Z,99501.99
2017-10-19T22:21:31.642Z,99509.02
2017-10-19T22:24:33.033Z,99501.72
2017-10-19T22:27:34.385Z,99487.66
2017-10-19T22:30:36.554Z,99489.42
2017-10-19T22:33:38.651Z,99493.82
2017-10-19T22:36:40.049Z,99490.65
2017-10-19T22:39:41.390Z,99490.28
2017-10-19T22:42:42.789Z,99497.27
2017-10-19T22:45:44.245Z,99495.89
2017-10-19T22:48:45.641Z,99497.23
2017-10-19T22:51:47.088Z,99489.22
2017-10-19T22:54:48.479Z,99474.16
2017-10-19T22:57:50.604Z,99485.45
2017-10-19T23:00:51.954Z,99488.56
2017-10-19T23:03:53.329Z,99484.59
2017-10-19T23:06:54.657Z,99484.66
2017-10-19T23:09:56.016Z,99483.20
2017-10-19T23:12:57.436Z,99483.91
2017-10-19T23:15:58.790Z,99483.67
2017-10-19T23:19:00.209Z,99491.31
2017-10-19T23:22:01.608Z,99492.77
2017-10-19T23:25:03.020Z,99481.99
2017-10-19T23:28:04.380Z,99478.20
2017-10-19T23:31:05.760Z,99481.49
2017-10-19T23:34:07.148Z,99482.42
2017-10-19T23:37:09.327Z,99481.38
2017-10-19T23:40:11.478Z,99482.07
2017-10-19T23:43:13.561Z,99494.52
2017-10-19T23:46:15.740Z,99493.28
2017-10-19T23:49:17.103Z,99499.13
2017-10-19T23:52:18.547Z,99509.03
2017-10-19T23:55:19.899Z,99500.55
2017-10-19T23:58:21.297Z,99501.83
